Portada
METAR-TAF:

METAR-TAF

Aeropuertos :

Aeropuerto de Copenhague-Kastrup

Copenhague, Dinamarca

latitud: 55-37N, longitud: 012-39E, altitud: 5 m

Observación

El informe se hizo hace 21 minutos, a las 11:50 UTC
Viento 16 kt del este
Temperatura 7°C
Humedad 66%
Presión 1028 hPa
Visibilidad 10 km o más
Cielo nuboso a una altura de 3200 ft

METAR: EKCH 211150Z 09016KT 9999 BKN032 07/01 Q1028 NOSIG

Hora: 13:11 (12:11 UTC)

Pronóstico

El informe se hizo hace 1 hora y 9 minutos, a las 11:02 UTC
Pronóstico válido del 21 a las 12 UTC al 22 a las 12 UTC
Viento 15 kt del este
Visibilidad 10 km o más
Cielo nuboso a una altura de 3000 ft

TAF: EKCH 211102Z 2112/2212 09015KT 9999 BKN030

Observaciones y pronósticos meteorológicos de más de 4000 aeropuertos (mensajes METAR y TAF).

Los puntos amarillos y rojos representan las estaciones disponibles.

Ponga el ratón en el punto deseado para ver el nombre de la estación.

Haga clic para ver las observaciones y los pronósticos meteorológicos.

Para cambiar el mapa : haga clic en los botones verdes con una cruz de color negro para hacer un zoom, en el botón verde con un guión para alejar o en las flechas verdes para mapas adyacentes.


METAR-TAF: